KCVG/CVG METAR and TAF weather

Enter ICAO airport designator
Station Type Date Time Source
KCVG METAR 2022/12/04 04:52 UTC NOAA

KCVG 040452Z 34008KT 10SM SCT250 M02/M07 A3042 RMK AO2 SLP306 T10221067 401281028


Station Type Date Time Source
KCVG Decoded METAR 2022/12/04 04:52 UTC NOAA

CINCINNATI/NORTHERN KY INTERNATIONAL , KY, United States (KCVG) 39-03N 084-40W 269M
Dec 03, 2022 - 11:52 PM EST / 2022.12.04 0452 UTC
Wind: from the NNW (340 degrees) at 9 MPH (8 KT):0
Visibility: 10 mile(s):0
Sky conditions: partly cloudy
Temperature: 28.0 F (-2.2 C)
Windchill: 19 F (-7 C):1
Dew Point: 19.9 F (-6.7 C)
Relative Humidity: 71%
Pressure (altimeter): 30.42 in. Hg (1030 hPa)
ob: KCVG 040452Z 34008KT 10SM SCT250 M02/M07 A3042 RMK AO2 SLP306 T10221067 401281028
cycle: 5

Station Type Date Time Source
KCVG TAF 2022/12/03 21:58 UTC NOAA

TAF
AMD KCVG 032055Z 0321/0424 31010KT P6SM SKC
FM040000 31006KT P6SM SKC
FM040300 32004KT P6SM SCT200
FM040900 00000KT P6SM BKN200
FM041400 22005KT P6SM SCT200

Example: see airport list